sensor_id;sensor_type;location;lat;lon;timestamp;temperature;humidity
22540;DHT22;11436;50.860;4.334;2022-11-13T00:00:32;11.60;99.90
22540;DHT22;11436;50.860;4.334;2022-11-13T00:02:58;11.60;99.90
22540;DHT22;11436;50.860;4.334;2022-11-13T00:05:24;11.70;99.90
22540;DHT22;11436;50.860;4.334;2022-11-13T00:07:49;11.70;99.90
22540;DHT22;11436;50.860;4.334;2022-11-13T00:10:15;11.70;99.90
22540;DHT22;11436;50.860;4.334;2022-11-13T00:12:41;11.80;99.90
22540;DHT22;11436;50.860;4.334;2022-11-13T00:15:08;11.70;99.90
22540;DHT22;11436;50.860;4.334;2022-11-13T00:17:33;11.60;99.90
22540;DHT22;11436;50.860;4.334;2022-11-13T00:19:59;11.60;99.90
22540;DHT22;11436;50.860;4.334;2022-11-13T00:22:25;11.50;99.90
22540;DHT22;11436;50.860;4.334;2022-11-13T00:24:51;11.50;99.90
22540;DHT22;11436;50.860;4.334;2022-11-13T00:27:17;11.50;99.90
22540;DHT22;11436;50.860;4.334;2022-11-13T00:29:43;11.40;99.90
22540;DHT22;11436;50.860;4.334;2022-11-13T00:32:09;11.50;99.90
22540;DHT22;11436;50.860;4.334;2022-11-13T00:34:34;11.40;99.90
22540;DHT22;11436;50.860;4.334;2022-11-13T00:37:00;11.30;99.90
22540;DHT22;11436;50.860;4.334;2022-11-13T00:39:26;11.40;99.90
22540;DHT22;11436;50.860;4.334;2022-11-13T00:41:52;11.30;99.90
22540;DHT22;11436;50.860;4.334;2022-11-13T00:44:17;11.30;99.90
22540;DHT22;11436;50.860;4.334;2022-11-13T00:46:43;11.20;99.90
22540;DHT22;11436;50.860;4.334;2022-11-13T00:49:09;11.20;99.90
22540;DHT22;11436;50.860;4.334;2022-11-13T00:51:34;11.30;99.90
22540;DHT22;11436;50.860;4.334;2022-11-13T00:54:00;11.20;99.90
22540;DHT22;11436;50.860;4.334;2022-11-13T00:56:26;11.10;99.90
22540;DHT22;11436;50.860;4.334;2022-11-13T00:58:52;11.10;99.90
22540;DHT22;11436;50.860;4.334;2022-11-13T01:01:19;11.20;99.90
22540;DHT22;11436;50.860;4.334;2022-11-13T01:03:45;11.20;99.90
22540;DHT22;11436;50.860;4.334;2022-11-13T01:06:20;11.10;99.90
22540;DHT22;11436;50.860;4.334;2022-11-13T01:08:46;11.00;99.90
22540;DHT22;11436;50.860;4.334;2022-11-13T01:11:15;10.90;99.90
22540;DHT22;11436;50.860;4.334;2022-11-13T01:13:43;10.80;99.90
22540;DHT22;11436;50.860;4.334;2022-11-13T01:16:11;10.80;99.90
22540;DHT22;11436;50.860;4.334;2022-11-13T01:18:37;10.80;99.90
22540;DHT22;11436;50.860;4.334;2022-11-13T01:21:13;10.70;99.90
22540;DHT22;11436;50.860;4.334;2022-11-13T01:23:39;10.80;99.90
22540;DHT22;11436;50.860;4.334;2022-11-13T01:26:21;10.80;99.90
22540;DHT22;11436;50.860;4.334;2022-11-13T01:28:47;10.80;99.90
22540;DHT22;11436;50.860;4.334;2022-11-13T01:31:16;10.80;99.90
22540;DHT22;11436;50.860;4.334;2022-11-13T01:33:46;10.90;99.90
22540;DHT22;11436;50.860;4.334;2022-11-13T01:36:18;11.00;99.90
22540;DHT22;11436;50.860;4.334;2022-11-13T01:38:45;11.30;99.90
22540;DHT22;11436;50.860;4.334;2022-11-13T01:41:25;11.30;99.90
22540;DHT22;11436;50.860;4.334;2022-11-13T01:43:53;11.10;99.90
22540;DHT22;11436;50.860;4.334;2022-11-13T01:46:31;10.90;99.90
22540;DHT22;11436;50.860;4.334;2022-11-13T01:51:32;10.90;99.90
22540;DHT22;11436;50.860;4.334;2022-11-13T01:54:00;11.10;99.90
22540;DHT22;11436;50.860;4.334;2022-11-13T01:56:26;11.10;99.90
22540;DHT22;11436;50.860;4.334;2022-11-13T02:01:50;11.10;99.90
22540;DHT22;11436;50.860;4.334;2022-11-13T02:04:16;11.00;99.90
22540;DHT22;11436;50.860;4.334;2022-11-13T02:06:46;11.00;99.90
22540;DHT22;11436;50.860;4.334;2022-11-13T02:09:15;10.90;99.90
22540;DHT22;11436;50.860;4.334;2022-11-13T02:11:42;10.90;99.90
22540;DHT22;11436;50.860;4.334;2022-11-13T02:14:08;10.80;99.90
22540;DHT22;11436;50.860;4.334;2022-11-13T02:16:36;10.80;99.90
22540;DHT22;11436;50.860;4.334;2022-11-13T02:19:13;10.80;99.90
22540;DHT22;11436;50.860;4.334;2022-11-13T02:21:52;10.80;99.90
22540;DHT22;11436;50.860;4.334;2022-11-13T02:24:28;10.70;99.90
22540;DHT22;11436;50.860;4.334;2022-11-13T02:26:59;10.80;99.90
22540;DHT22;11436;50.860;4.334;2022-11-13T02:29:26;10.80;99.90
22540;DHT22;11436;50.860;4.334;2022-11-13T02:31:52;10.80;99.90
22540;DHT22;11436;50.860;4.334;2022-11-13T02:34:18;10.70;99.90
22540;DHT22;11436;50.860;4.334;2022-11-13T02:36:43;10.70;99.90
22540;DHT22;11436;50.860;4.334;2022-11-13T02:39:11;10.70;99.90
22540;DHT22;11436;50.860;4.334;2022-11-13T02:41:37;10.80;99.90
22540;DHT22;11436;50.860;4.334;2022-11-13T02:44:05;10.70;99.90
22540;DHT22;11436;50.860;4.334;2022-11-13T02:46:31;10.80;99.90
22540;DHT22;11436;50.860;4.334;2022-11-13T02:48:56;10.80;99.90
22540;DHT22;11436;50.860;4.334;2022-11-13T02:51:22;10.70;99.90
22540;DHT22;11436;50.860;4.334;2022-11-13T02:53:48;10.70;99.90
22540;DHT22;11436;50.860;4.334;2022-11-13T02:56:14;10.80;99.90
22540;DHT22;11436;50.860;4.334;2022-11-13T02:58:40;10.70;99.90
22540;DHT22;11436;50.860;4.334;2022-11-13T03:01:06;10.70;99.90
22540;DHT22;11436;50.860;4.334;2022-11-13T03:03:32;10.60;99.90
22540;DHT22;11436;50.860;4.334;2022-11-13T03:05:58;10.60;99.90
22540;DHT22;11436;50.860;4.334;2022-11-13T03:08:23;10.50;99.90
22540;DHT22;11436;50.860;4.334;2022-11-13T03:10:51;10.50;99.90
22540;DHT22;11436;50.860;4.334;2022-11-13T03:13:17;10.40;99.90
22540;DHT22;11436;50.860;4.334;2022-11-13T03:15:43;10.30;99.90
22540;DHT22;11436;50.860;4.334;2022-11-13T03:18:09;10.20;99.90
22540;DHT22;11436;50.860;4.334;2022-11-13T03:20:39;10.10;99.90
22540;DHT22;11436;50.860;4.334;2022-11-13T03:23:05;9.90;99.90
22540;DHT22;11436;50.860;4.334;2022-11-13T03:25:32;9.90;99.90
22540;DHT22;11436;50.860;4.334;2022-11-13T03:27:57;9.90;99.90
22540;DHT22;11436;50.860;4.334;2022-11-13T03:30:23;9.80;99.90
22540;DHT22;11436;50.860;4.334;2022-11-13T03:32:56;9.90;99.90
22540;DHT22;11436;50.860;4.334;2022-11-13T03:35:23;9.90;99.90
22540;DHT22;11436;50.860;4.334;2022-11-13T03:37:50;9.90;99.90
22540;DHT22;11436;50.860;4.334;2022-11-13T03:40:16;9.90;99.90
22540;DHT22;11436;50.860;4.334;2022-11-13T03:42:42;9.90;99.90
22540;DHT22;11436;50.860;4.334;2022-11-13T03:45:08;9.80;99.90
22540;DHT22;11436;50.860;4.334;2022-11-13T03:47:34;9.70;99.90
22540;DHT22;11436;50.860;4.334;2022-11-13T03:50:00;9.60;99.90
22540;DHT22;11436;50.860;4.334;2022-11-13T03:52:25;9.50;99.90
22540;DHT22;11436;50.860;4.334;2022-11-13T03:54:51;9.50;99.90
22540;DHT22;11436;50.860;4.334;2022-11-13T03:57:17;9.50;99.90
22540;DHT22;11436;50.860;4.334;2022-11-13T03:59:43;9.60;99.90
22540;DHT22;11436;50.860;4.334;2022-11-13T04:02:09;9.60;99.90
22540;DHT22;11436;50.860;4.334;2022-11-13T04:04:35;9.50;99.90
22540;DHT22;11436;50.860;4.334;2022-11-13T04:07:01;9.50;99.90
22540;DHT22;11436;50.860;4.334;2022-11-13T04:09:27;9.50;99.90
22540;DHT22;11436;50.860;4.334;2022-11-13T04:11:53;9.50;99.90
22540;DHT22;11436;50.860;4.334;2022-11-13T04:14:19;9.60;99.90
22540;DHT22;11436;50.860;4.334;2022-11-13T04:16:44;9.50;99.90
22540;DHT22;11436;50.860;4.334;2022-11-13T04:19:10;9.60;99.90
22540;DHT22;11436;50.860;4.334;2022-11-13T04:21:36;9.60;99.90
22540;DHT22;11436;50.860;4.334;2022-11-13T04:24:02;9.60;99.90
22540;DHT22;11436;50.860;4.334;2022-11-13T04:26:28;9.60;99.90
22540;DHT22;11436;50.860;4.334;2022-11-13T04:28:53;9.60;99.90
22540;DHT22;11436;50.860;4.334;2022-11-13T04:31:19;9.60;99.90
22540;DHT22;11436;50.860;4.334;2022-11-13T04:33:45;9.60;99.90
22540;DHT22;11436;50.860;4.334;2022-11-13T04:36:10;9.60;99.90
22540;DHT22;11436;50.860;4.334;2022-11-13T04:38:36;9.50;99.90
22540;DHT22;11436;50.860;4.334;2022-11-13T04:41:02;9.50;99.90
22540;DHT22;11436;50.860;4.334;2022-11-13T04:43:46;9.50;99.90
22540;DHT22;11436;50.860;4.334;2022-11-13T04:46:12;9.40;99.90
22540;DHT22;11436;50.860;4.334;2022-11-13T04:48:38;9.40;99.90
22540;DHT22;11436;50.860;4.334;2022-11-13T04:51:04;9.40;99.90
22540;DHT22;11436;50.860;4.334;2022-11-13T04:53:30;9.40;99.90
22540;DHT22;11436;50.860;4.334;2022-11-13T04:55:55;9.40;99.90
22540;DHT22;11436;50.860;4.334;2022-11-13T04:58:21;9.40;99.90
22540;DHT22;11436;50.860;4.334;2022-11-13T05:00:47;9.40;99.90
22540;DHT22;11436;50.860;4.334;2022-11-13T05:03:13;9.50;99.90
22540;DHT22;11436;50.860;4.334;2022-11-13T05:05:38;9.40;99.90
22540;DHT22;11436;50.860;4.334;2022-11-13T05:08:04;9.50;99.90
22540;DHT22;11436;50.860;4.334;2022-11-13T05:10:30;9.50;99.90
22540;DHT22;11436;50.860;4.334;2022-11-13T05:12:55;9.40;99.90
22540;DHT22;11436;50.860;4.334;2022-11-13T05:15:21;9.40;99.90
22540;DHT22;11436;50.860;4.334;2022-11-13T05:17:50;9.40;99.90
22540;DHT22;11436;50.860;4.334;2022-11-13T05:20:16;9.50;99.90
22540;DHT22;11436;50.860;4.334;2022-11-13T05:22:42;9.60;99.90
22540;DHT22;11436;50.860;4.334;2022-11-13T05:25:07;9.50;99.90
22540;DHT22;11436;50.860;4.334;2022-11-13T05:27:33;9.40;99.90
22540;DHT22;11436;50.860;4.334;2022-11-13T05:29:59;9.50;99.90
22540;DHT22;11436;50.860;4.334;2022-11-13T05:32:25;9.50;99.90
22540;DHT22;11436;50.860;4.334;2022-11-13T05:34:50;9.50;99.90
22540;DHT22;11436;50.860;4.334;2022-11-13T05:37:16;9.50;99.90
22540;DHT22;11436;50.860;4.334;2022-11-13T05:39:42;9.40;99.90
22540;DHT22;11436;50.860;4.334;2022-11-13T05:42:08;9.50;99.90
22540;DHT22;11436;50.860;4.334;2022-11-13T05:44:33;9.50;99.90
22540;DHT22;11436;50.860;4.334;2022-11-13T05:46:59;9.60;99.90
22540;DHT22;11436;50.860;4.334;2022-11-13T05:49:25;9.50;99.90
22540;DHT22;11436;50.860;4.334;2022-11-13T05:51:53;9.50;99.90
22540;DHT22;11436;50.860;4.334;2022-11-13T05:54:19;9.40;99.90
22540;DHT22;11436;50.860;4.334;2022-11-13T05:56:44;9.40;99.90
22540;DHT22;11436;50.860;4.334;2022-11-13T05:59:10;9.50;99.90
22540;DHT22;11436;50.860;4.334;2022-11-13T06:01:38;9.50;99.90
22540;DHT22;11436;50.860;4.334;2022-11-13T06:04:05;9.50;99.90
22540;DHT22;11436;50.860;4.334;2022-11-13T06:06:32;9.40;99.90
22540;DHT22;11436;50.860;4.334;2022-11-13T06:09:00;9.50;99.90
22540;DHT22;11436;50.860;4.334;2022-11-13T06:11:28;9.50;99.90
22540;DHT22;11436;50.860;4.334;2022-11-13T06:13:54;9.40;99.90
22540;DHT22;11436;50.860;4.334;2022-11-13T06:16:23;9.40;99.90
22540;DHT22;11436;50.860;4.334;2022-11-13T06:18:50;9.50;99.90
22540;DHT22;11436;50.860;4.334;2022-11-13T06:21:21;9.40;99.90
22540;DHT22;11436;50.860;4.334;2022-11-13T06:23:47;9.50;99.90
22540;DHT22;11436;50.860;4.334;2022-11-13T06:26:15;9.40;99.90
22540;DHT22;11436;50.860;4.334;2022-11-13T06:28:42;9.30;99.90
22540;DHT22;11436;50.860;4.334;2022-11-13T06:31:13;9.20;99.90
22540;DHT22;11436;50.860;4.334;2022-11-13T06:33:40;9.10;99.90
22540;DHT22;11436;50.860;4.334;2022-11-13T06:36:17;9.10;99.90
22540;DHT22;11436;50.860;4.334;2022-11-13T06:38:44;9.20;99.90
22540;DHT22;11436;50.860;4.334;2022-11-13T06:41:12;9.00;99.90
22540;DHT22;11436;50.860;4.334;2022-11-13T06:43:38;9.00;99.90
22540;DHT22;11436;50.860;4.334;2022-11-13T06:46:07;9.00;99.90
22540;DHT22;11436;50.860;4.334;2022-11-13T06:48:34;8.90;99.90
22540;DHT22;11436;50.860;4.334;2022-11-13T06:51:02;8.90;99.90
22540;DHT22;11436;50.860;4.334;2022-11-13T06:53:28;9.00;99.90
22540;DHT22;11436;50.860;4.334;2022-11-13T06:55:54;9.20;99.90
22540;DHT22;11436;50.860;4.334;2022-11-13T06:58:20;9.10;99.90
22540;DHT22;11436;50.860;4.334;2022-11-13T07:00:46;9.00;99.90
22540;DHT22;11436;50.860;4.334;2022-11-13T07:03:17;8.90;99.90
22540;DHT22;11436;50.860;4.334;2022-11-13T07:05:43;8.80;99.90
22540;DHT22;11436;50.860;4.334;2022-11-13T07:08:10;8.80;99.90
22540;DHT22;11436;50.860;4.334;2022-11-13T07:10:36;8.80;99.90
22540;DHT22;11436;50.860;4.334;2022-11-13T07:13:02;8.90;99.90
22540;DHT22;11436;50.860;4.334;2022-11-13T07:15:28;9.10;99.90
22540;DHT22;11436;50.860;4.334;2022-11-13T07:17:54;9.20;99.90
22540;DHT22;11436;50.860;4.334;2022-11-13T07:20:20;9.20;99.90
22540;DHT22;11436;50.860;4.334;2022-11-13T07:22:45;9.30;99.90
22540;DHT22;11436;50.860;4.334;2022-11-13T07:25:11;9.30;99.90
22540;DHT22;11436;50.860;4.334;2022-11-13T07:27:37;9.30;99.90
22540;DHT22;11436;50.860;4.334;2022-11-13T07:30:03;9.20;99.90
22540;DHT22;11436;50.860;4.334;2022-11-13T07:32:29;9.10;99.90
22540;DHT22;11436;50.860;4.334;2022-11-13T07:34:54;9.10;99.90
22540;DHT22;11436;50.860;4.334;2022-11-13T07:37:20;9.00;99.90
22540;DHT22;11436;50.860;4.334;2022-11-13T07:39:46;9.00;99.90
22540;DHT22;11436;50.860;4.334;2022-11-13T07:42:11;9.00;99.90
22540;DHT22;11436;50.860;4.334;2022-11-13T07:44:37;9.30;99.90
22540;DHT22;11436;50.860;4.334;2022-11-13T07:47:03;9.30;99.90
22540;DHT22;11436;50.860;4.334;2022-11-13T07:49:29;9.40;99.90
22540;DHT22;11436;50.860;4.334;2022-11-13T07:51:54;9.60;99.90
22540;DHT22;11436;50.860;4.334;2022-11-13T07:54:20;9.60;99.90
22540;DHT22;11436;50.860;4.334;2022-11-13T07:56:46;9.40;99.90
22540;DHT22;11436;50.860;4.334;2022-11-13T07:59:12;9.40;99.90
22540;DHT22;11436;50.860;4.334;2022-11-13T08:01:38;9.40;99.90
22540;DHT22;11436;50.860;4.334;2022-11-13T08:04:04;9.30;99.90
22540;DHT22;11436;50.860;4.334;2022-11-13T08:06:29;9.30;99.90
22540;DHT22;11436;50.860;4.334;2022-11-13T08:08:55;9.20;99.90
22540;DHT22;11436;50.860;4.334;2022-11-13T08:11:21;9.20;99.90
22540;DHT22;11436;50.860;4.334;2022-11-13T08:13:47;9.30;99.90
22540;DHT22;11436;50.860;4.334;2022-11-13T08:16:12;9.50;99.90
22540;DHT22;11436;50.860;4.334;2022-11-13T08:18:38;9.70;99.90
22540;DHT22;11436;50.860;4.334;2022-11-13T08:21:04;9.60;99.90
22540;DHT22;11436;50.860;4.334;2022-11-13T08:23:31;9.60;99.90
22540;DHT22;11436;50.860;4.334;2022-11-13T08:25:57;9.60;99.90
22540;DHT22;11436;50.860;4.334;2022-11-13T08:28:23;9.60;99.90
22540;DHT22;11436;50.860;4.334;2022-11-13T08:30:49;9.70;99.90
22540;DHT22;11436;50.860;4.334;2022-11-13T08:33:14;9.70;99.90
22540;DHT22;11436;50.860;4.334;2022-11-13T08:35:40;9.80;99.90
22540;DHT22;11436;50.860;4.334;2022-11-13T08:38:08;9.90;99.90
22540;DHT22;11436;50.860;4.334;2022-11-13T08:40:34;9.90;99.90
22540;DHT22;11436;50.860;4.334;2022-11-13T08:43:03;9.80;99.90
22540;DHT22;11436;50.860;4.334;2022-11-13T08:45:29;10.00;99.90
22540;DHT22;11436;50.860;4.334;2022-11-13T08:48:03;10.00;99.90
22540;DHT22;11436;50.860;4.334;2022-11-13T08:50:30;10.10;99.90
22540;DHT22;11436;50.860;4.334;2022-11-13T08:52:57;10.10;99.90
22540;DHT22;11436;50.860;4.334;2022-11-13T08:55:24;10.20;99.90
22540;DHT22;11436;50.860;4.334;2022-11-13T08:57:50;10.20;99.90
22540;DHT22;11436;50.860;4.334;2022-11-13T09:00:16;10.20;99.90
22540;DHT22;11436;50.860;4.334;2022-11-13T09:02:43;10.30;99.90
22540;DHT22;11436;50.860;4.334;2022-11-13T09:05:10;10.30;99.90
22540;DHT22;11436;50.860;4.334;2022-11-13T09:07:36;10.40;99.90
22540;DHT22;11436;50.860;4.334;2022-11-13T09:10:02;10.40;99.90
22540;DHT22;11436;50.860;4.334;2022-11-13T09:12:28;10.40;99.90
22540;DHT22;11436;50.860;4.334;2022-11-13T09:14:54;10.60;99.90
22540;DHT22;11436;50.860;4.334;2022-11-13T09:17:20;10.70;99.90
22540;DHT22;11436;50.860;4.334;2022-11-13T09:19:46;10.70;99.90
22540;DHT22;11436;50.860;4.334;2022-11-13T09:22:11;10.70;99.90
22540;DHT22;11436;50.860;4.334;2022-11-13T09:24:37;10.80;99.90
22540;DHT22;11436;50.860;4.334;2022-11-13T09:27:03;10.80;99.90
22540;DHT22;11436;50.860;4.334;2022-11-13T09:29:29;10.90;99.90
22540;DHT22;11436;50.860;4.334;2022-11-13T09:31:55;10.80;99.90
22540;DHT22;11436;50.860;4.334;2022-11-13T09:34:21;10.70;99.90
22540;DHT22;11436;50.860;4.334;2022-11-13T09:36:48;10.60;99.90
22540;DHT22;11436;50.860;4.334;2022-11-13T09:39:13;10.60;99.90
22540;DHT22;11436;50.860;4.334;2022-11-13T09:41:52;10.50;99.90
22540;DHT22;11436;50.860;4.334;2022-11-13T09:44:35;10.70;99.90
22540;DHT22;11436;50.860;4.334;2022-11-13T09:50:23;11.00;99.90
22540;DHT22;11436;50.860;4.334;2022-11-13T09:52:49;11.20;99.90
22540;DHT22;11436;50.860;4.334;2022-11-13T09:55:18;11.40;99.90
22540;DHT22;11436;50.860;4.334;2022-11-13T09:58:10;11.50;99.90
22540;DHT22;11436;50.860;4.334;2022-11-13T10:00:40;11.50;99.90
22540;DHT22;11436;50.860;4.334;2022-11-13T10:06:18;11.70;99.90
22540;DHT22;11436;50.860;4.334;2022-11-13T10:08:59;12.00;99.90
22540;DHT22;11436;50.860;4.334;2022-11-13T10:11:38;12.20;99.90
22540;DHT22;11436;50.860;4.334;2022-11-13T10:14:16;12.60;99.90
22540;DHT22;11436;50.860;4.334;2022-11-13T10:16:58;12.80;99.90
22540;DHT22;11436;50.860;4.334;2022-11-13T10:22:23;12.60;99.90
22540;DHT22;11436;50.860;4.334;2022-11-13T10:24:52;12.50;99.90
22540;DHT22;11436;50.860;4.334;2022-11-13T10:27:22;12.80;99.90
22540;DHT22;11436;50.860;4.334;2022-11-13T10:29:48;12.90;99.90
22540;DHT22;11436;50.860;4.334;2022-11-13T10:32:23;13.00;99.90
22540;DHT22;11436;50.860;4.334;2022-11-13T10:38:08;12.80;99.90
22540;DHT22;11436;50.860;4.334;2022-11-13T10:40:38;12.80;99.90
22540;DHT22;11436;50.860;4.334;2022-11-13T10:43:09;12.80;99.90
22540;DHT22;11436;50.860;4.334;2022-11-13T10:45:38;13.00;99.90
22540;DHT22;11436;50.860;4.334;2022-11-13T10:48:04;13.10;99.90
22540;DHT22;11436;50.860;4.334;2022-11-13T10:50:31;13.10;99.90
22540;DHT22;11436;50.860;4.334;2022-11-13T10:52:57;12.90;99.90
22540;DHT22;11436;50.860;4.334;2022-11-13T10:55:34;13.00;99.90
22540;DHT22;11436;50.860;4.334;2022-11-13T10:58:09;13.10;99.90
22540;DHT22;11436;50.860;4.334;2022-11-13T11:00:37;13.00;99.90
22540;DHT22;11436;50.860;4.334;2022-11-13T11:03:24;13.00;99.90
22540;DHT22;11436;50.860;4.334;2022-11-13T11:08:35;13.10;99.90
22540;DHT22;11436;50.860;4.334;2022-11-13T11:11:06;13.30;99.90
22540;DHT22;11436;50.860;4.334;2022-11-13T11:13:51;13.40;99.90
22540;DHT22;11436;50.860;4.334;2022-11-13T11:16:22;13.60;99.90
22540;DHT22;11436;50.860;4.334;2022-11-13T11:18:57;13.70;99.90
22540;DHT22;11436;50.860;4.334;2022-11-13T11:21:28;13.70;99.90
22540;DHT22;11436;50.860;4.334;2022-11-13T11:24:11;13.50;99.90
22540;DHT22;11436;50.860;4.334;2022-11-13T11:34:39;13.70;99.90
22540;DHT22;11436;50.860;4.334;2022-11-13T11:42:43;14.00;99.90
22540;DHT22;11436;50.860;4.334;2022-11-13T11:45:30;14.40;99.90
22540;DHT22;11436;50.860;4.334;2022-11-13T11:47:58;15.00;99.90
22540;DHT22;11436;50.860;4.334;2022-11-13T11:50:35;15.00;99.90
22540;DHT22;11436;50.860;4.334;2022-11-13T11:53:11;15.00;99.90
22540;DHT22;11436;50.860;4.334;2022-11-13T11:56:04;15.10;99.90
22540;DHT22;11436;50.860;4.334;2022-11-13T12:07:00;15.70;99.90
22540;DHT22;11436;50.860;4.334;2022-11-13T12:09:39;16.00;99.90
22540;DHT22;11436;50.860;4.334;2022-11-13T12:25:45;16.00;99.90
22540;DHT22;11436;50.860;4.334;2022-11-13T12:28:19;15.80;99.90
22540;DHT22;11436;50.860;4.334;2022-11-13T12:34:09;15.70;99.90
22540;DHT22;11436;50.860;4.334;2022-11-13T12:36:37;16.20;99.90
22540;DHT22;11436;50.860;4.334;2022-11-13T12:39:27;16.30;99.90
22540;DHT22;11436;50.860;4.334;2022-11-13T12:45:15;16.90;99.90
22540;DHT22;11436;50.860;4.334;2022-11-13T12:47:20;17.10;99.90
22540;DHT22;11436;50.860;4.334;2022-11-13T12:49:56;18.50;99.90
22540;DHT22;11436;50.860;4.334;2022-11-13T12:52:24;19.30;99.90
22540;DHT22;11436;50.860;4.334;2022-11-13T12:54:50;20.90;99.90
22540;DHT22;11436;50.860;4.334;2022-11-13T12:57:23;21.90;99.90
22540;DHT22;11436;50.860;4.334;2022-11-13T12:59:54;22.30;99.90
22540;DHT22;11436;50.860;4.334;2022-11-13T13:02:51;22.50;99.90
22540;DHT22;11436;50.860;4.334;2022-11-13T13:05:27;21.90;99.90
22540;DHT22;11436;50.860;4.334;2022-11-13T13:08:46;21.60;99.90
22540;DHT22;11436;50.860;4.334;2022-11-13T13:16:33;22.60;99.90
22540;DHT22;11436;50.860;4.334;2022-11-13T13:19:27;22.20;99.90
22540;DHT22;11436;50.860;4.334;2022-11-13T13:21:53;22.40;99.90
22540;DHT22;11436;50.860;4.334;2022-11-13T13:24:33;23.60;99.90
22540;DHT22;11436;50.860;4.334;2022-11-13T13:27:00;24.70;99.90
22540;DHT22;11436;50.860;4.334;2022-11-13T13:29:27;24.10;99.90
22540;DHT22;11436;50.860;4.334;2022-11-13T13:45:51;25.50;98.50
22540;DHT22;11436;50.860;4.334;2022-11-13T13:48:24;24.60;99.90
22540;DHT22;11436;50.860;4.334;2022-11-13T13:50:51;24.20;99.90
22540;DHT22;11436;50.860;4.334;2022-11-13T13:53:26;24.50;99.90
22540;DHT22;11436;50.860;4.334;2022-11-13T13:55:56;23.80;99.90
22540;DHT22;11436;50.860;4.334;2022-11-13T13:58:28;23.00;99.90
22540;DHT22;11436;50.860;4.334;2022-11-13T14:01:00;22.30;99.90
22540;DHT22;11436;50.860;4.334;2022-11-13T14:03:27;21.90;99.90
22540;DHT22;11436;50.860;4.334;2022-11-13T14:05:54;21.60;99.90
22540;DHT22;11436;50.860;4.334;2022-11-13T14:08:23;21.50;99.90
22540;DHT22;11436;50.860;4.334;2022-11-13T14:10:50;21.30;99.90
22540;DHT22;11436;50.860;4.334;2022-11-13T14:13:26;21.30;99.90
22540;DHT22;11436;50.860;4.334;2022-11-13T14:16:00;21.20;99.90
22540;DHT22;11436;50.860;4.334;2022-11-13T14:18:26;20.80;99.90
22540;DHT22;11436;50.860;4.334;2022-11-13T14:20:54;20.60;99.90
22540;DHT22;11436;50.860;4.334;2022-11-13T14:23:28;20.30;99.90
22540;DHT22;11436;50.860;4.334;2022-11-13T14:25:55;20.00;99.90
22540;DHT22;11436;50.860;4.334;2022-11-13T14:28:24;20.00;99.90
22540;DHT22;11436;50.860;4.334;2022-11-13T14:31:02;20.20;99.90
22540;DHT22;11436;50.860;4.334;2022-11-13T14:33:43;20.40;99.90
22540;DHT22;11436;50.860;4.334;2022-11-13T14:36:10;20.50;99.90
22540;DHT22;11436;50.860;4.334;2022-11-13T14:38:42;20.50;99.90
22540;DHT22;11436;50.860;4.334;2022-11-13T14:41:28;20.40;99.90
22540;DHT22;11436;50.860;4.334;2022-11-13T14:43:55;20.20;99.90
22540;DHT22;11436;50.860;4.334;2022-11-13T14:46:34;19.70;99.90
22540;DHT22;11436;50.860;4.334;2022-11-13T14:49:00;19.30;99.90
22540;DHT22;11436;50.860;4.334;2022-11-13T14:51:27;19.30;99.90
22540;DHT22;11436;50.860;4.334;2022-11-13T14:59:09;18.60;99.90
22540;DHT22;11436;50.860;4.334;2022-11-13T15:01:36;18.30;99.90
22540;DHT22;11436;50.860;4.334;2022-11-13T15:04:02;18.10;99.90
22540;DHT22;11436;50.860;4.334;2022-11-13T15:06:34;18.00;99.90
22540;DHT22;11436;50.860;4.334;2022-11-13T15:09:01;18.10;99.90
22540;DHT22;11436;50.860;4.334;2022-11-13T15:11:26;18.00;99.90
22540;DHT22;11436;50.860;4.334;2022-11-13T15:13:52;18.00;99.90
22540;DHT22;11436;50.860;4.334;2022-11-13T15:16:26;17.70;99.90
22540;DHT22;11436;50.860;4.334;2022-11-13T15:21:24;17.30;99.90
22540;DHT22;11436;50.860;4.334;2022-11-13T15:23:50;17.30;99.90
22540;DHT22;11436;50.860;4.334;2022-11-13T15:26:16;17.30;99.90
22540;DHT22;11436;50.860;4.334;2022-11-13T15:28:42;17.00;99.90
22540;DHT22;11436;50.860;4.334;2022-11-13T15:31:36;16.90;99.90
22540;DHT22;11436;50.860;4.334;2022-11-13T15:34:04;16.80;99.90
22540;DHT22;11436;50.860;4.334;2022-11-13T15:36:30;16.80;99.90
22540;DHT22;11436;50.860;4.334;2022-11-13T15:38:56;16.60;99.90
22540;DHT22;11436;50.860;4.334;2022-11-13T15:41:25;16.50;99.90
22540;DHT22;11436;50.860;4.334;2022-11-13T15:43:53;16.50;99.90
22540;DHT22;11436;50.860;4.334;2022-11-13T15:46:21;16.40;99.90
22540;DHT22;11436;50.860;4.334;2022-11-13T15:48:48;16.30;99.90
22540;DHT22;11436;50.860;4.334;2022-11-13T15:51:17;16.00;99.90
22540;DHT22;11436;50.860;4.334;2022-11-13T15:53:45;15.90;99.90
22540;DHT22;11436;50.860;4.334;2022-11-13T15:56:13;15.80;99.90
22540;DHT22;11436;50.860;4.334;2022-11-13T15:58:38;15.70;99.90
22540;DHT22;11436;50.860;4.334;2022-11-13T16:01:04;15.70;99.90
22540;DHT22;11436;50.860;4.334;2022-11-13T16:03:30;15.80;99.90
22540;DHT22;11436;50.860;4.334;2022-11-13T16:05:59;15.80;99.90
22540;DHT22;11436;50.860;4.334;2022-11-13T16:08:25;15.80;99.90
22540;DHT22;11436;50.860;4.334;2022-11-13T16:10:52;15.60;99.90
22540;DHT22;11436;50.860;4.334;2022-11-13T16:13:19;15.50;99.90
22540;DHT22;11436;50.860;4.334;2022-11-13T16:15:44;15.30;99.90
22540;DHT22;11436;50.860;4.334;2022-11-13T16:18:21;15.30;99.90
22540;DHT22;11436;50.860;4.334;2022-11-13T16:20:47;15.30;99.90
22540;DHT22;11436;50.860;4.334;2022-11-13T16:23:15;15.20;99.90
22540;DHT22;11436;50.860;4.334;2022-11-13T16:25:45;15.10;99.90
22540;DHT22;11436;50.860;4.334;2022-11-13T16:28:17;15.00;99.90
22540;DHT22;11436;50.860;4.334;2022-11-13T16:30:44;14.90;99.90
22540;DHT22;11436;50.860;4.334;2022-11-13T16:33:11;14.90;99.90
22540;DHT22;11436;50.860;4.334;2022-11-13T16:35:38;14.80;99.90
22540;DHT22;11436;50.860;4.334;2022-11-13T16:38:11;14.80;99.90
22540;DHT22;11436;50.860;4.334;2022-11-13T16:40:38;14.70;99.90
22540;DHT22;11436;50.860;4.334;2022-11-13T16:43:06;14.70;99.90
22540;DHT22;11436;50.860;4.334;2022-11-13T16:45:32;14.80;99.90
22540;DHT22;11436;50.860;4.334;2022-11-13T16:47:58;14.80;99.90
22540;DHT22;11436;50.860;4.334;2022-11-13T16:50:28;14.60;99.90
22540;DHT22;11436;50.860;4.334;2022-11-13T16:52:54;14.60;99.90
22540;DHT22;11436;50.860;4.334;2022-11-13T16:55:21;14.50;99.90
22540;DHT22;11436;50.860;4.334;2022-11-13T16:57:47;14.40;99.90
22540;DHT22;11436;50.860;4.334;2022-11-13T17:00:15;14.40;99.90
22540;DHT22;11436;50.860;4.334;2022-11-13T17:02:41;14.30;99.90
22540;DHT22;11436;50.860;4.334;2022-11-13T17:05:11;14.20;99.90
22540;DHT22;11436;50.860;4.334;2022-11-13T17:07:38;14.20;99.90
22540;DHT22;11436;50.860;4.334;2022-11-13T17:10:03;14.20;99.90
22540;DHT22;11436;50.860;4.334;2022-11-13T17:12:30;14.10;99.90